Glovis Chorus — D7OR — position and weather

sailwx.info

Track history (hours):
 
Tides and Currents Weather Stations Pressure Air Temp Water Temp Dewpoint Dewpoint Depression Visibility Wind Speed Wind Dir Waves Ship Positions

Glovis Chorus

Last reported at 2017-Oct-20 07:51 UTC. Time now 2017-Oct-23 06:13 UTC.
Position N 31°06' E 122°32'.

Length 200 m; draft 7.6 m.

Type: Cargo ship. MMSI: 440292000.

Date/timePositionNaut miles runAvg speedWind from/ knotsBaromVisibWave heightAir tempDewpointWater temp
2017-Oct-20 07:51N 31°06' E 122°32'512.1
2017-Oct-20 07:25N 31°06' E 122°26'512.1
2017-Oct-20 07:01N 31°06' E 122°20'714.3
2017-Oct-20 06:29N 31°09' E 122°13'714.6
2017-Oct-20 06:00N 31°14' E 122°06'714.7
2017-Oct-20 05:30N 31°15' E 121°58'714.4
2017-Oct-20 05:01N 31°17' E 121°49'612.6
2017-Oct-20 04:31N 31°19' E 121°43'1 2.9
2017-Oct-20 03:59N 31°19' E 121°41'0 0.0
2017-Oct-20 03:26N 31°19' E 121°41'0 0.0
2017-Oct-20 02:50N 31°19' E 121°41'0 0.0
2017-Oct-20 02:29N 31°19' E 121°41'0 0.0
2017-Oct-20 01:59N 31°19' E 121°41'0 0.0
2017-Oct-20 01:26N 31°19' E 121°41'0 0.0
2017-Oct-20 00:59N 31°19' E 121°41'0 0.0
2017-Oct-20 00:29N 31°19' E 121°41'0 0.0
2017-Oct-19 23:59N 31°19' E 121°41'0 0.0
2017-Oct-19 23:29N 31°19' E 121°41'0 0.0
2017-Oct-19 22:59N 31°19' E 121°41'0 0.0
2017-Oct-19 22:29N 31°19' E 121°41'0 0.0
2017-Oct-19 21:59N 31°19' E 121°41'0 0.0
2017-Oct-19 21:29N 31°19' E 121°41'0 0.0
2017-Oct-19 20:59N 31°19' E 121°41'0 0.0
2017-Oct-19 20:29N 31°19' E 121°41'0 0.0
2017-Oct-19 19:59N 31°19' E 121°41'0 0.0
2017-Oct-19 19:29N 31°19' E 121°41'0 0.0
2017-Oct-19 18:56N 31°19' E 121°41'0 0.0
2017-Oct-19 18:29N 31°19' E 121°41'0 0.0
2017-Oct-19 17:59N 31°19' E 121°41'0 0.0
2017-Oct-19 17:29N 31°19' E 121°41'0 0.0
2017-Oct-19 16:59N 31°19' E 121°41'0 0.3
2017-Oct-19 16:30N 31°19' E 121°41'1 2.2
2017-Oct-19 16:00N 31°19' E 121°42'4 8.4
2017-Oct-19 15:30N 31°16' E 121°46'612.1
2017-Oct-19 15:00N 31°11' E 121°50'611.5
2017-Oct-19 14:30N 31°08' E 121°55'611.1
2017-Oct-19 14:00N 31°05' E 122°01'612.1
2017-Oct-19 13:30N 31°04' E 122°08'510.2
2017-Oct-19 13:00N 31°03' E 122°14'4 8.2
2017-Oct-19 12:30N 31°03' E 122°19'3 5.8
2017-Oct-19 12:00N 31°02' E 122°22'4 7.4
2017-Oct-19 11:24N 31°01' E 122°27'411.1
2017-Oct-19 11:00N 31°00' E 122°32'  
2017-Oct-15 08:07N 37°59' E 122°09'316.0
2017-Oct-15 07:54N 38°00' E 122°06'716.1
2017-Oct-15 07:28N 38°04' E 121°58'  
Track history (hours):
 
Tides and Currents Weather Stations Pressure Air Temp Water Temp Dewpoint Dewpoint Depression Visibility Wind Speed Wind Dir Waves Ship Positions

Glovis Chorus

Last reported at 2017-Oct-20 07:51 UTC. Time now 2017-Oct-23 06:13 UTC.
Position N 31°06' E 122°32'.

Length 200 m; draft 7.6 m.

Type: Cargo ship. MMSI: 440292000.

Date/timePositionNaut miles runAvg speedWind from/ knotsBaromVisibWave heightAir tempDewpointWater temp
2017-Oct-20 07:51N 31°06' E 122°32'512.1
2017-Oct-20 07:25N 31°06' E 122°26'512.1
2017-Oct-20 07:01N 31°06' E 122°20'714.3
2017-Oct-20 06:29N 31°09' E 122°13'714.6
2017-Oct-20 06:00N 31°14' E 122°06'714.7
2017-Oct-20 05:30N 31°15' E 121°58'714.4
2017-Oct-20 05:01N 31°17' E 121°49'612.6
2017-Oct-20 04:31N 31°19' E 121°43'1 2.9
2017-Oct-20 03:59N 31°19' E 121°41'0 0.0
2017-Oct-20 03:26N 31°19' E 121°41'0 0.0
2017-Oct-20 02:50N 31°19' E 121°41'0 0.0
2017-Oct-20 02:29N 31°19' E 121°41'0 0.0
2017-Oct-20 01:59N 31°19' E 121°41'0 0.0
2017-Oct-20 01:26N 31°19' E 121°41'0 0.0
2017-Oct-20 00:59N 31°19' E 121°41'0 0.0
2017-Oct-20 00:29N 31°19' E 121°41'0 0.0
2017-Oct-19 23:59N 31°19' E 121°41'0 0.0
2017-Oct-19 23:29N 31°19' E 121°41'0 0.0
2017-Oct-19 22:59N 31°19' E 121°41'0 0.0
2017-Oct-19 22:29N 31°19' E 121°41'0 0.0
2017-Oct-19 21:59N 31°19' E 121°41'0 0.0
2017-Oct-19 21:29N 31°19' E 121°41'0 0.0
2017-Oct-19 20:59N 31°19' E 121°41'0 0.0
2017-Oct-19 20:29N 31°19' E 121°41'0 0.0
2017-Oct-19 19:59N 31°19' E 121°41'0 0.0
2017-Oct-19 19:29N 31°19' E 121°41'0 0.0
2017-Oct-19 18:56N 31°19' E 121°41'0 0.0
2017-Oct-19 18:29N 31°19' E 121°41'0 0.0
2017-Oct-19 17:59N 31°19' E 121°41'0 0.0
2017-Oct-19 17:29N 31°19' E 121°41'0 0.0
2017-Oct-19 16:59N 31°19' E 121°41'0 0.3
2017-Oct-19 16:30N 31°19' E 121°41'1 2.2
2017-Oct-19 16:00N 31°19' E 121°42'4 8.4
2017-Oct-19 15:30N 31°16' E 121°46'612.1
2017-Oct-19 15:00N 31°11' E 121°50'611.5
2017-Oct-19 14:30N 31°08' E 121°55'611.1
2017-Oct-19 14:00N 31°05' E 122°01'612.1
2017-Oct-19 13:30N 31°04' E 122°08'510.2
2017-Oct-19 13:00N 31°03' E 122°14'4 8.2
2017-Oct-19 12:30N 31°03' E 122°19'3 5.8
2017-Oct-19 12:00N 31°02' E 122°22'4 7.4
2017-Oct-19 11:24N 31°01' E 122°27'411.1
2017-Oct-19 11:00N 31°00' E 122°32'  
2017-Oct-15 08:07N 37°59' E 122°09'316.0
2017-Oct-15 07:54N 38°00' E 122°06'716.1
2017-Oct-15 07:28N 38°04' E 121°58'  

Dump ship's entire track history